createdAt,value
2023-02-16T00:01:30.330Z,80.47
2023-02-16T00:04:13.480Z,88.35
2023-02-16T00:06:45.877Z,80.13
2023-02-16T00:09:18.719Z,82.05
2023-02-16T00:12:11.836Z,89.18
2023-02-16T00:14:43.935Z,90.65
2023-02-16T00:17:15.962Z,76.28
2023-02-16T00:19:47.975Z,79.47
2023-02-16T00:22:19.960Z,86.50
2023-02-16T00:24:52.306Z,82.47
2023-02-16T00:27:24.275Z,81.07
2023-02-16T00:29:56.396Z,87.80
2023-02-16T00:32:28.539Z,83.35
2023-02-16T00:35:01.127Z,81.25
2023-02-16T00:37:33.077Z,94.50
2023-02-16T00:40:05.591Z,85.80
2023-02-16T00:42:38.311Z,85.20
2023-02-16T00:45:21.685Z,89.18
2023-02-16T00:47:54.987Z,107.07
2023-02-16T00:50:35.331Z,86.18
2023-02-16T00:53:07.318Z,90.20
2023-02-16T00:55:42.042Z,97.00
2023-02-16T00:58:26.168Z,96.07
2023-02-16T01:01:08.913Z,90.68
2023-02-16T01:03:41.422Z,92.22
2023-02-16T01:06:31.796Z,85.60
2023-02-16T01:09:35.138Z,94.20
2023-02-16T01:12:17.353Z,92.38
2023-02-16T01:14:53.861Z,88.72
2023-02-16T01:17:25.923Z,85.50
2023-02-16T01:19:57.928Z,99.20
2023-02-16T01:22:33.494Z,88.30
2023-02-16T01:25:05.966Z,83.32
2023-02-16T01:27:39.158Z,98.95
2023-02-16T01:30:21.960Z,89.60
2023-02-16T01:32:54.101Z,82.53
2023-02-16T01:35:33.174Z,85.53
2023-02-16T01:38:05.228Z,86.88
2023-02-16T01:40:57.874Z,79.35
2023-02-16T01:43:46.983Z,88.43
2023-02-16T01:46:25.902Z,89.45
2023-02-16T01:48:57.844Z,81.68
2023-02-16T01:51:50.624Z,74.95
2023-02-16T01:54:31.799Z,79.35
2023-02-16T01:57:05.816Z,93.05
2023-02-16T01:59:44.062Z,78.78
2023-02-16T02:02:32.859Z,83.63
2023-02-16T02:05:37.096Z,85.18
2023-02-16T02:08:19.252Z,80.68
2023-02-16T02:11:14.395Z,72.60
2023-02-16T02:13:55.190Z,75.22
2023-02-16T02:16:28.832Z,82.15
2023-02-16T02:19:00.998Z,76.13
2023-02-16T02:22:16.776Z,71.65
2023-02-16T02:24:57.203Z,78.30
2023-02-16T02:27:34.450Z,74.90
2023-02-16T02:30:27.811Z,81.03
2023-02-16T02:33:32.867Z,73.38
2023-02-16T02:36:40.532Z,81.80
2023-02-16T02:39:31.289Z,70.78
2023-02-16T02:42:34.127Z,86.50
2023-02-16T02:45:23.347Z,79.75
2023-02-16T02:47:55.348Z,75.32
2023-02-16T02:51:12.274Z,77.35
2023-02-16T02:54:16.280Z,75.07
2023-02-16T02:57:45.174Z,67.93
2023-02-16T03:00:41.819Z,72.60
2023-02-16T03:03:20.860Z,73.20
2023-02-16T03:06:13.944Z,70.63
2023-02-16T03:08:51.993Z,72.57
2023-02-16T03:11:48.288Z,82.15
2023-02-16T03:14:31.278Z,77.75
2023-02-16T03:17:35.577Z,78.53
2023-02-16T03:20:31.619Z,73.88
2023-02-16T03:23:24.584Z,78.95
2023-02-16T03:26:15.431Z,70.30
2023-02-16T03:29:06.743Z,65.68
2023-02-16T03:31:40.294Z,69.15
2023-02-16T03:34:12.906Z,79.72
2023-02-16T03:36:52.913Z,67.68
2023-02-16T03:39:27.936Z,75.43
2023-02-16T03:41:59.933Z,76.43
2023-02-16T03:44:31.996Z,73.18
2023-02-16T03:47:04.025Z,76.20
2023-02-16T03:49:35.965Z,73.15
2023-02-16T03:52:07.940Z,79.30
2023-02-16T03:54:39.928Z,71.68
2023-02-16T03:57:11.861Z,69.93
2023-02-16T03:59:43.898Z,75.57
2023-02-16T04:02:15.977Z,76.95
2023-02-16T04:04:48.052Z,65.20
2023-02-16T04:07:20.134Z,76.03
2023-02-16T04:09:52.084Z,69.13
2023-02-16T04:12:36.355Z,72.07
2023-02-16T04:15:12.814Z,84.10
2023-02-16T04:17:45.314Z,84.28
2023-02-16T04:20:20.709Z,75.13
2023-02-16T04:22:53.538Z,81.63
2023-02-16T04:25:26.237Z,70.05
2023-02-16T04:27:58.374Z,76.57
2023-02-16T04:30:32.486Z,74.60
2023-02-16T04:33:04.688Z,72.05
2023-02-16T04:35:36.693Z,85.43
2023-02-16T04:38:08.758Z,78.90
2023-02-16T04:40:40.833Z,76.88
2023-02-16T04:43:12.804Z,82.05
2023-02-16T04:45:44.806Z,72.45
2023-02-16T04:48:16.757Z,83.20
2023-02-16T04:50:48.757Z,78.88
2023-02-16T04:53:20.745Z,78.25
2023-02-16T04:55:52.736Z,79.95
2023-02-16T04:58:24.823Z,84.75
2023-02-16T05:00:56.781Z,85.13
2023-02-16T05:03:28.942Z,85.32
2023-02-16T05:06:01.162Z,81.00
2023-02-16T05:08:33.143Z,84.68
2023-02-16T05:11:23.840Z,79.78
2023-02-16T05:14:18.805Z,83.05
2023-02-16T05:16:51.152Z,92.07
2023-02-16T05:19:23.160Z,78.50
2023-02-16T05:21:55.159Z,86.35
2023-02-16T05:24:28.540Z,79.07
2023-02-16T05:27:02.109Z,83.18
2023-02-16T05:29:34.727Z,85.72
2023-02-16T05:32:06.821Z,97.68
2023-02-16T05:34:38.959Z,88.22
2023-02-16T05:37:12.161Z,82.32
2023-02-16T05:39:44.831Z,87.43
2023-02-16T05:42:16.833Z,85.93
2023-02-16T05:44:48.967Z,86.05
2023-02-16T05:47:20.950Z,85.78
2023-02-16T05:49:52.942Z,101.47
2023-02-16T05:52:24.887Z,85.13
2023-02-16T05:54:56.857Z,89.90
2023-02-16T05:57:28.909Z,90.18
2023-02-16T06:00:01.257Z,87.72
2023-02-16T06:02:33.279Z,90.47
2023-02-16T06:05:05.589Z,85.22
2023-02-16T06:07:37.546Z,88.97
2023-02-16T06:10:10.094Z,80.32
2023-02-16T06:12:44.602Z,87.68
2023-02-16T06:15:18.062Z,91.03
2023-02-16T06:17:51.467Z,85.20
2023-02-16T06:20:23.450Z,81.55
2023-02-16T06:22:55.474Z,91.05
2023-02-16T06:25:27.524Z,85.40
2023-02-16T06:27:59.562Z,84.72
2023-02-16T06:30:31.806Z,86.47
2023-02-16T06:33:05.747Z,84.28
2023-02-16T06:35:37.730Z,85.28
2023-02-16T06:38:09.857Z,92.60
2023-02-16T06:40:41.878Z,78.78
2023-02-16T06:43:14.285Z,88.57
2023-02-16T06:45:47.273Z,88.43
2023-02-16T06:48:19.449Z,86.78
2023-02-16T06:50:52.083Z,87.40
2023-02-16T06:53:25.520Z,92.70
2023-02-16T06:55:57.609Z,89.10
2023-02-16T06:58:29.637Z,81.88
2023-02-16T07:01:01.669Z,86.47
2023-02-16T07:03:34.050Z,90.93
2023-02-16T07:06:07.052Z,85.13
2023-02-16T07:08:39.068Z,84.45
2023-02-16T07:11:11.506Z,92.22
2023-02-16T07:13:44.009Z,89.22
2023-02-16T07:16:16.535Z,79.88
2023-02-16T07:18:49.005Z,85.03
2023-02-16T07:21:21.048Z,85.40
2023-02-16T07:23:53.094Z,84.80
2023-02-16T07:26:25.079Z,83.65
2023-02-16T07:28:57.018Z,83.20
2023-02-16T07:31:29.173Z,85.47
2023-02-16T07:34:01.373Z,86.07
2023-02-16T07:36:33.547Z,92.43
2023-02-16T07:39:05.805Z,85.95
2023-02-16T07:41:37.835Z,84.00
2023-02-16T07:44:09.911Z,81.32
2023-02-16T07:46:41.872Z,83.18
2023-02-16T07:49:13.837Z,84.60
2023-02-16T07:51:45.892Z,85.75
2023-02-16T07:54:17.828Z,89.88
2023-02-16T07:56:49.840Z,86.05
2023-02-16T07:59:21.899Z,86.82
2023-02-16T08:01:54.009Z,75.60
2023-02-16T08:04:26.317Z,91.85
2023-02-16T08:06:58.463Z,79.80
2023-02-16T08:09:30.518Z,83.25
2023-02-16T08:12:02.699Z,95.05
2023-02-16T08:14:34.778Z,92.88
2023-02-16T08:17:08.129Z,84.80
2023-02-16T08:19:40.826Z,76.85
2023-02-16T08:22:12.852Z,80.55
2023-02-16T08:24:45.048Z,74.53
2023-02-16T08:27:17.233Z,79.40
2023-02-16T08:29:49.278Z,73.82
2023-02-16T08:32:21.414Z,87.30
2023-02-16T08:34:53.532Z,84.30
2023-02-16T08:37:25.555Z,80.57
2023-02-16T08:40:00.770Z,81.38
2023-02-16T08:42:32.998Z,75.88
2023-02-16T08:45:07.477Z,82.47
2023-02-16T08:47:39.515Z,79.97
2023-02-16T08:50:11.693Z,78.25
2023-02-16T08:52:43.721Z,82.22
2023-02-16T08:55:15.789Z,84.78
2023-02-16T08:57:48.137Z,75.10
2023-02-16T09:00:35.846Z,78.22
2023-02-16T09:03:07.988Z,70.57
2023-02-16T09:05:40.531Z,81.38
2023-02-16T09:08:12.923Z,79.43
2023-02-16T09:10:45.061Z,77.65
2023-02-16T09:13:17.064Z,80.72
2023-02-16T09:15:49.594Z,84.10
2023-02-16T09:18:21.696Z,79.78
2023-02-16T09:20:53.858Z,75.70
2023-02-16T09:23:26.118Z,85.20
2023-02-16T09:26:02.129Z,75.00
2023-02-16T09:28:36.366Z,77.38
2023-02-16T09:31:25.559Z,71.88
2023-02-16T09:34:17.045Z,81.53
2023-02-16T09:36:50.372Z,76.95
2023-02-16T09:39:22.935Z,81.63
2023-02-16T09:42:28.446Z,83.75
2023-02-16T09:45:14.281Z,89.50
2023-02-16T09:47:49.855Z,71.15
2023-02-16T09:50:50.715Z,77.88
2023-02-16T09:53:39.623Z,73.95
2023-02-16T09:56:28.189Z,77.10
2023-02-16T09:59:25.806Z,75.82
2023-02-16T10:02:32.578Z,75.68
2023-02-16T10:05:08.562Z,71.13
2023-02-16T10:08:09.513Z,71.68
2023-02-16T10:10:57.131Z,73.63
2023-02-16T10:13:47.293Z,67.78
2023-02-16T10:16:28.574Z,73.00
2023-02-16T10:19:09.476Z,73.85
2023-02-16T10:21:48.525Z,80.38
2023-02-16T10:24:20.954Z,78.78
2023-02-16T10:27:10.060Z,77.57
2023-02-16T10:29:42.820Z,78.15
2023-02-16T10:32:37.283Z,74.57
2023-02-16T10:35:15.417Z,73.43
2023-02-16T10:38:09.379Z,76.85
2023-02-16T10:41:00.988Z,74.10
2023-02-16T10:44:01.763Z,76.60
2023-02-16T10:46:44.366Z,77.82
2023-02-16T10:49:18.020Z,79.90
2023-02-16T10:51:52.367Z,69.82
2023-02-16T10:54:31.898Z,74.68
2023-02-16T10:57:20.560Z,73.85
2023-02-16T10:59:54.897Z,83.63
2023-02-16T11:02:41.680Z,80.28
2023-02-16T11:05:39.408Z,75.82
2023-02-16T11:08:12.969Z,84.00
2023-02-16T11:10:52.699Z,71.18
2023-02-16T11:13:34.299Z,80.00
2023-02-16T11:16:21.133Z,75.65
2023-02-16T11:19:13.553Z,73.28
2023-02-16T11:21:52.151Z,85.65
2023-02-16T11:24:32.089Z,72.38
2023-02-16T11:27:19.600Z,84.75
2023-02-16T11:29:51.712Z,76.40
2023-02-16T11:32:24.440Z,71.82
2023-02-16T11:34:57.706Z,89.82
2023-02-16T11:37:34.147Z,70.75
2023-02-16T11:40:21.659Z,83.55
2023-02-16T11:42:59.863Z,82.05
2023-02-16T11:45:35.599Z,82.75
2023-02-16T11:48:32.687Z,82.20
2023-02-16T11:51:09.262Z,74.18
2023-02-16T11:53:44.532Z,82.55
2023-02-16T11:56:29.847Z,83.35
2023-02-16T11:59:14.964Z,82.15
2023-02-16T12:02:17.437Z,79.35
2023-02-16T12:05:26.294Z,82.78
2023-02-16T12:08:58.335Z,86.85
2023-02-16T12:11:55.528Z,82.82
2023-02-16T12:15:26.585Z,81.50
2023-02-16T12:18:20.657Z,79.03
2023-02-16T12:21:45.637Z,83.50
2023-02-16T12:24:47.873Z,85.57
2023-02-16T12:27:41.958Z,90.07
2023-02-16T12:31:00.506Z,86.50
2023-02-16T12:33:57.675Z,97.50
2023-02-16T12:37:04.949Z,97.75
2023-02-16T12:39:46.296Z,103.30
2023-02-16T12:42:46.988Z,102.32
2023-02-16T12:45:28.250Z,90.22
2023-02-16T12:48:11.163Z,99.95
2023-02-16T12:50:46.261Z,93.78
2023-02-16T12:53:48.254Z,97.95
2023-02-16T12:56:27.614Z,93.32
2023-02-16T12:59:27.129Z,91.40
2023-02-16T13:02:01.924Z,99.10
2023-02-16T13:04:49.155Z,100.00
2023-02-16T13:07:38.482Z,102.40
2023-02-16T13:10:47.051Z,95.43
2023-02-16T13:13:25.564Z,105.75
2023-02-16T13:16:30.411Z,99.10
2023-02-16T13:19:03.284Z,87.53
2023-02-16T13:21:51.272Z,95.80
2023-02-16T13:25:08.029Z,89.07
2023-02-16T13:28:11.193Z,97.07
2023-02-16T13:31:01.739Z,91.25
2023-02-16T13:33:58.365Z,93.97
2023-02-16T13:37:25.529Z,99.03
2023-02-16T13:40:23.232Z,86.13
2023-02-16T13:43:01.352Z,100.88
2023-02-16T13:45:40.599Z,101.80
2023-02-16T13:48:48.237Z,94.77
2023-02-16T13:51:24.200Z,99.43
2023-02-16T13:53:58.701Z,96.25
2023-02-16T13:56:33.294Z,99.82
2023-02-16T13:59:17.394Z,94.67
2023-02-16T14:01:53.746Z,108.20
2023-02-16T14:04:25.670Z,102.35
2023-02-16T14:07:03.798Z,108.47
2023-02-16T14:09:38.556Z,98.47
2023-02-16T14:12:16.848Z,109.00
2023-02-16T14:14:51.835Z,104.90
2023-02-16T14:17:31.218Z,104.68
2023-02-16T14:20:09.321Z,113.73
2023-02-16T14:22:51.206Z,112.22
2023-02-16T14:25:23.120Z,106.53
2023-02-16T14:27:59.284Z,103.30
2023-02-16T14:30:35.794Z,122.07
2023-02-16T14:33:22.817Z,110.97
2023-02-16T14:36:00.569Z,94.90
2023-02-16T14:38:41.557Z,102.78
2023-02-16T14:41:35.568Z,116.53
2023-02-16T14:44:07.479Z,109.30
2023-02-16T14:47:22.087Z,116.35
2023-02-16T14:50:30.816Z,123.97
2023-02-16T14:53:28.021Z,119.78
2023-02-16T14:56:14.499Z,121.25
2023-02-16T14:59:07.073Z,120.40
2023-02-16T15:01:42.243Z,122.57
2023-02-16T15:04:32.158Z,120.78
2023-02-16T15:07:05.552Z,119.65
2023-02-16T15:09:42.706Z,127.35
2023-02-16T15:12:21.726Z,136.98
2023-02-16T15:15:04.140Z,143.18
2023-02-16T15:17:45.659Z,125.88
2023-02-16T15:20:24.966Z,146.88
2023-02-16T15:23:02.368Z,131.03
2023-02-16T15:25:41.100Z,133.57
2023-02-16T15:28:26.057Z,132.80
2023-02-16T15:31:07.559Z,128.55
2023-02-16T15:33:54.677Z,131.55
2023-02-16T15:36:43.533Z,129.43
2023-02-16T15:39:41.309Z,140.10
2023-02-16T15:42:29.133Z,130.70
2023-02-16T15:45:01.160Z,136.07
2023-02-16T15:47:34.076Z,113.72
2023-02-16T15:50:14.383Z,123.72
2023-02-16T15:55:18.741Z,114.05
2023-02-16T15:57:51.326Z,125.18
2023-02-16T16:00:25.096Z,113.53
2023-02-16T16:03:00.830Z,125.22
2023-02-16T16:05:42.048Z,115.90
2023-02-16T16:08:17.502Z,126.35
2023-02-16T16:10:49.761Z,138.85
2023-02-16T16:13:26.919Z,121.93
2023-02-16T16:16:02.247Z,126.68
2023-02-16T16:18:50.766Z,114.72
2023-02-16T16:21:34.349Z,127.03
2023-02-16T16:24:10.028Z,131.80
2023-02-16T16:26:56.806Z,133.07
2023-02-16T16:29:47.618Z,125.05
2023-02-16T16:32:28.902Z,131.60
2023-02-16T16:35:01.017Z,130.52
2023-02-16T16:37:37.417Z,121.55
2023-02-16T16:40:18.817Z,122.70
2023-02-16T16:43:28.524Z,128.85
2023-02-16T16:46:30.439Z,125.07
2023-02-16T16:49:06.363Z,118.35
2023-02-16T16:51:44.091Z,132.57
2023-02-16T16:54:35.879Z,117.43
2023-02-16T16:57:17.498Z,124.20
2023-02-16T16:59:49.475Z,116.30
2023-02-16T17:02:21.426Z,123.30
2023-02-16T17:04:53.424Z,120.28
2023-02-16T17:07:25.417Z,129.63
2023-02-16T17:09:57.803Z,122.38
2023-02-16T17:12:30.099Z,132.70
2023-02-16T17:15:03.276Z,122.22
2023-02-16T17:17:35.553Z,128.95
2023-02-16T17:20:14.909Z,114.38
2023-02-16T17:22:47.212Z,118.63
2023-02-16T17:25:19.728Z,124.47
2023-02-16T17:27:51.861Z,125.65
2023-02-16T17:30:24.136Z,111.28
2023-02-16T17:32:56.190Z,136.80
2023-02-16T17:35:28.852Z,121.07
2023-02-16T17:38:19.601Z,129.68
2023-02-16T17:40:54.513Z,123.90
2023-02-16T17:43:27.628Z,127.93
2023-02-16T17:46:04.756Z,117.47
2023-02-16T17:48:38.228Z,129.20
2023-02-16T17:51:17.263Z,127.65
2023-02-16T17:53:50.520Z,131.50
2023-02-16T17:56:25.100Z,132.23
2023-02-16T17:58:57.267Z,124.85
2023-02-16T18:01:30.030Z,129.77
2023-02-16T18:04:04.183Z,125.40
2023-02-16T18:06:36.919Z,121.50
2023-02-16T18:09:16.067Z,118.85
2023-02-16T18:11:48.214Z,135.18
2023-02-16T18:14:20.338Z,129.20
2023-02-16T18:16:53.106Z,117.93
2023-02-16T18:19:26.668Z,121.55
2023-02-16T18:21:58.716Z,128.35
2023-02-16T18:24:31.655Z,114.95
2023-02-16T18:27:03.834Z,133.63
2023-02-16T18:29:35.883Z,140.27
2023-02-16T18:32:08.441Z,121.45
2023-02-16T18:34:40.706Z,119.32
2023-02-16T18:37:12.736Z,123.47
2023-02-16T18:39:44.892Z,128.00
2023-02-16T18:42:17.181Z,117.80
2023-02-16T18:44:50.756Z,124.97
2023-02-16T18:47:22.875Z,107.15
2023-02-16T18:49:56.417Z,123.15
2023-02-16T18:52:28.475Z,116.57
2023-02-16T18:55:00.581Z,118.70
2023-02-16T18:57:32.620Z,106.90
2023-02-16T19:00:06.925Z,116.63
2023-02-16T19:02:41.062Z,119.72
2023-02-16T19:05:13.244Z,119.72
2023-02-16T19:07:45.230Z,113.18
2023-02-16T19:10:19.079Z,111.03
2023-02-16T19:12:51.590Z,116.18
2023-02-16T19:15:23.851Z,112.95
2023-02-16T19:17:55.872Z,122.93
2023-02-16T19:20:29.731Z,119.38
2023-02-16T19:23:01.746Z,113.55
2023-02-16T19:25:33.714Z,108.88
2023-02-16T19:28:05.858Z,113.45
2023-02-16T19:30:38.076Z,110.22
2023-02-16T19:33:10.115Z,112.13
2023-02-16T19:35:42.163Z,117.93
2023-02-16T19:38:15.461Z,106.07
2023-02-16T19:40:48.348Z,115.60
2023-02-16T19:43:21.327Z,107.25
2023-02-16T19:45:53.500Z,114.13
2023-02-16T19:48:25.500Z,127.47
2023-02-16T19:50:59.532Z,121.40
2023-02-16T19:53:32.678Z,125.70
2023-02-16T19:56:07.634Z,124.45
2023-02-16T19:58:39.970Z,121.22
2023-02-16T20:01:24.466Z,120.18
2023-02-16T20:03:58.153Z,115.10
2023-02-16T20:06:32.997Z,122.25
2023-02-16T20:09:05.700Z,123.32
2023-02-16T20:11:39.665Z,123.55
2023-02-16T20:14:12.565Z,129.52
2023-02-16T20:16:44.662Z,126.07
2023-02-16T20:19:16.650Z,122.95
2023-02-16T20:21:48.683Z,137.55
2023-02-16T20:24:20.864Z,138.57
2023-02-16T20:26:52.906Z,139.68
2023-02-16T20:29:25.192Z,135.90
2023-02-16T20:31:58.745Z,141.85
2023-02-16T20:34:32.319Z,143.27
2023-02-16T20:37:04.491Z,132.13
2023-02-16T20:39:36.532Z,135.85
2023-02-16T20:42:08.913Z,129.75
2023-02-16T20:44:43.547Z,146.88
2023-02-16T20:47:18.891Z,157.82
2023-02-16T20:50:00.634Z,139.90
2023-02-16T20:52:32.656Z,144.23
2023-02-16T20:55:04.842Z,143.35
2023-02-16T20:57:37.692Z,148.10
2023-02-16T21:00:17.223Z,150.82
2023-02-16T21:02:53.082Z,150.88
2023-02-16T21:05:25.150Z,145.25
2023-02-16T21:07:57.325Z,148.10
2023-02-16T21:10:29.382Z,153.90
2023-02-16T21:13:01.411Z,147.68
2023-02-16T21:15:36.704Z,155.30
2023-02-16T21:18:08.772Z,150.48
2023-02-16T21:20:41.108Z,151.65
2023-02-16T21:23:14.630Z,136.80
2023-02-16T21:25:46.896Z,143.88
2023-02-16T21:28:21.425Z,137.85
2023-02-16T21:30:53.993Z,155.50
2023-02-16T21:33:26.191Z,152.45
2023-02-16T21:36:38.938Z,147.23
2023-02-16T21:39:13.045Z,140.85
2023-02-16T21:41:45.182Z,144.00
2023-02-16T21:44:18.174Z,158.98
2023-02-16T21:46:59.298Z,151.73
2023-02-16T21:49:31.687Z,138.00
2023-02-16T21:52:03.897Z,163.57
2023-02-16T21:54:54.411Z,158.68
2023-02-16T21:57:26.461Z,138.38
2023-02-16T21:59:58.494Z,135.63
2023-02-16T22:02:30.461Z,143.18
2023-02-16T22:05:02.448Z,137.50
2023-02-16T22:07:34.471Z,128.80
2023-02-16T22:10:07.479Z,127.03
2023-02-16T22:12:39.489Z,138.70
2023-02-16T22:15:11.478Z,136.23
2023-02-16T22:17:43.608Z,130.30
2023-02-16T22:20:17.164Z,138.18
2023-02-16T22:22:52.583Z,127.13
2023-02-16T22:25:24.564Z,134.50
2023-02-16T22:27:56.602Z,139.55
2023-02-16T22:30:28.730Z,126.05
2023-02-16T22:33:00.736Z,123.05
2023-02-16T22:35:33.840Z,134.13
2023-02-16T22:38:05.956Z,130.05
2023-02-16T22:40:38.264Z,128.45
2023-02-16T22:43:10.395Z,134.55
2023-02-16T22:45:42.472Z,126.85
2023-02-16T22:48:14.523Z,128.65
2023-02-16T22:51:01.389Z,128.48
2023-02-16T22:53:34.530Z,120.57
2023-02-16T22:56:09.820Z,125.68
2023-02-16T22:58:42.047Z,124.93
2023-02-16T23:01:20.268Z,114.57
2023-02-16T23:03:57.492Z,117.75
2023-02-16T23:06:36.622Z,121.53
2023-02-16T23:09:21.595Z,118.70
2023-02-16T23:11:53.637Z,117.88
2023-02-16T23:14:26.623Z,115.97
2023-02-16T23:16:59.447Z,117.00
2023-02-16T23:19:32.567Z,111.28
2023-02-16T23:22:04.538Z,100.95
2023-02-16T23:24:36.688Z,100.35
2023-02-16T23:27:08.759Z,92.63
2023-02-16T23:29:40.685Z,102.40
2023-02-16T23:32:12.645Z,96.43
2023-02-16T23:34:44.659Z,100.32
2023-02-16T23:37:16.702Z,99.90
2023-02-16T23:39:48.669Z,101.90
2023-02-16T23:42:21.528Z,89.07
2023-02-16T23:44:57.140Z,96.95
2023-02-16T23:47:29.284Z,86.28
2023-02-16T23:50:01.488Z,96.07
2023-02-16T23:52:36.370Z,88.68
2023-02-16T23:55:16.397Z,83.25
2023-02-16T23:57:48.375Z,83.35
